Time,TemperatureF,DewpointF,PressureIn,WindDirection,WindDirectionDegrees,WindSpeedMPH,WindSpeedGustMPH,Humidity,HourlyPrecipIn,Conditions,Clouds,dailyrainin,SoftwareType,DateUTC
2013-05-29 00:02:00,54.0,52.0,-100.00,East,95,2.0,2.0,90,-99.99,,,-99.99,,2013-05-29 04:02:00,
2013-05-29 00:23:00,54.0,52.0,-100.00,ESE,115,1.0,2.0,91,-99.99,,,-99.99,,2013-05-29 04:23:00,
2013-05-29 00:33:00,54.0,52.0,-100.00,SE,135,2.0,2.0,93,-99.99,,,-99.99,,2013-05-29 04:33:00,
2013-05-29 00:42:00,54.0,52.0,-100.00,SE,135,2.0,2.0,93,-99.99,,,-99.99,,2013-05-29 04:42:00,
2013-05-29 00:52:00,54.0,52.0,-100.00,SSE,160,2.0,3.0,93,-99.99,,,-99.99,,2013-05-29 04:52:00,
2013-05-29 01:02:00,54.0,52.0,-100.00,SSE,160,2.0,3.0,93,-99.99,,,-99.99,,2013-05-29 05:02:00,
2013-05-29 01:22:00,54.0,52.0,-100.00,SSW,210,1.0,2.0,95,-99.99,,,-99.99,,2013-05-29 05:22:00,
2013-05-29 01:32:00,54.0,52.0,-100.00,SSW,210,2.0,2.0,96,-99.99,,,-99.99,,2013-05-29 05:32:00,
2013-05-29 01:42:00,53.0,52.0,-100.00,SW,215,2.0,2.0,96,-99.99,,,-99.99,,2013-05-29 05:42:00,
2013-05-29 02:01:00,53.0,53.0,-100.00,SSE,165,3.0,6.0,97,-99.99,,,-99.99,,2013-05-29 06:01:00,
2013-05-29 02:12:00,53.0,52.0,-100.00,SSW,205,3.0,8.0,97,-99.99,,,-99.99,,2013-05-29 06:12:00,
2013-05-29 02:21:00,53.0,53.0,-100.00,SSW,195,2.0,6.0,97,-99.99,,,-99.99,,2013-05-29 06:21:00,
2013-05-29 02:32:00,53.0,53.0,-100.00,SW,225,2.0,6.0,97,-99.99,,,-99.99,,2013-05-29 06:32:00,
2013-05-29 02:42:00,53.0,52.0,-100.00,South,175,3.0,6.0,97,-99.99,,,-99.99,,2013-05-29 06:42:00,
2013-05-29 02:52:00,53.0,52.0,-100.00,South,185,5.0,8.0,97,-99.99,,,-99.99,,2013-05-29 06:52:00,
2013-05-29 03:01:00,53.0,52.0,-100.00,SSE,165,2.0,8.0,97,-99.99,,,-99.99,,2013-05-29 07:01:00,
2013-05-29 03:11:00,53.0,52.0,-100.00,SSE,165,2.0,8.0,97,-99.99,,,-99.99,,2013-05-29 07:11:00,
2013-05-29 03:21:00,53.0,53.0,-100.00,SSW,200,2.0,6.0,97,-99.99,,,-99.99,,2013-05-29 07:21:00,
2013-05-29 03:34:00,53.0,52.0,-100.00,SSW,205,3.0,7.0,97,-99.99,,,-99.99,,2013-05-29 07:34:00,
2013-05-29 03:42:00,53.0,52.0,-100.00,SSW,210,3.0,7.0,97,-99.99,,,-99.99,,2013-05-29 07:42:00,
2013-05-29 03:52:00,53.0,53.0,-100.00,SW,215,5.0,9.0,97,-99.99,,,-99.99,,2013-05-29 07:52:00,
2013-05-29 04:02:00,54.0,52.0,-100.00,SSW,210,3.0,9.0,96,-99.99,,,-99.99,,2013-05-29 08:02:00,
2013-05-29 04:11:00,54.0,52.0,-100.00,South,190,5.0,10.0,96,-99.99,,,-99.99,,2013-05-29 08:11:00,
2013-05-29 04:22:00,54.0,53.0,-100.00,South,185,2.0,6.0,96,-99.99,,,-99.99,,2013-05-29 08:22:00,
2013-05-29 04:32:00,54.0,53.0,-100.00,SW,225,1.0,5.0,96,-99.99,,,-99.99,,2013-05-29 08:32:00,
2013-05-29 04:42:00,54.0,53.0,-100.00,SW,225,1.0,5.0,96,-99.99,,,-99.99,,2013-05-29 08:42:00,
2013-05-29 04:52:00,54.0,53.0,-100.00,SSW,200,1.0,5.0,96,-99.99,,,-99.99,,2013-05-29 08:52:00,
2013-05-29 05:01:00,54.0,53.0,-100.00,SSE,165,2.0,5.0,96,-99.99,,,-99.99,,2013-05-29 09:01:00,
2013-05-29 05:21:00,54.0,53.0,-100.00,South,170,2.0,3.0,96,-99.99,,,-99.99,,2013-05-29 09:21:00,
2013-05-29 05:33:00,54.0,53.0,-100.00,SSW,195,1.0,3.0,95,-99.99,,,-99.99,,2013-05-29 09:33:00,
2013-05-29 05:42:00,54.0,53.0,-100.00,South,170,0.0,3.0,96,-99.99,,,-99.99,,2013-05-29 09:42:00,
2013-05-29 05:52:00,54.0,53.0,-100.00,South,180,1.0,3.0,95,-99.99,,,-99.99,,2013-05-29 09:52:00,
2013-05-29 06:03:00,54.0,53.0,-100.00,SSE,155,2.0,5.0,95,-99.99,,,-99.99,,2013-05-29 10:03:00,
2013-05-29 06:12:00,54.0,53.0,-100.00,ESE,115,1.0,5.0,95,-99.99,,,-99.99,,2013-05-29 10:12:00,
2013-05-29 06:22:00,54.0,53.0,-100.00,SE,135,1.0,3.0,95,-99.99,,,-99.99,,2013-05-29 10:22:00,
2013-05-29 06:32:00,54.0,52.0,-100.00,South,170,1.0,3.0,94,-99.99,,,-99.99,,2013-05-29 10:32:00,
2013-05-29 06:42:00,54.0,52.0,-100.00,South,170,1.0,3.0,94,-99.99,,,-99.99,,2013-05-29 10:42:00,
2013-05-29 06:52:00,54.0,52.0,-100.00,South,170,1.0,3.0,94,-99.99,,,-99.99,,2013-05-29 10:52:00,
2013-05-29 07:02:00,54.0,52.0,-100.00,SSW,210,2.0,3.0,95,-99.99,,,-99.99,,2013-05-29 11:02:00,
2013-05-29 07:12:00,54.0,53.0,-100.00,SSE,155,1.0,3.0,96,-99.99,,,-99.99,,2013-05-29 11:12:00,
2013-05-29 07:22:00,54.0,53.0,-100.00,SSE,150,2.0,5.0,96,-99.99,,,-99.99,,2013-05-29 11:22:00,
2013-05-29 07:42:00,55.0,53.0,-100.00,South,180,3.0,6.0,95,-99.99,,,-99.99,,2013-05-29 11:42:00,
2013-05-29 07:52:00,55.0,53.0,-100.00,SSW,200,5.0,10.0,95,-99.99,,,-99.99,,2013-05-29 11:52:00,
2013-05-29 08:01:00,55.0,53.0,-100.00,South,170,2.0,8.0,94,-99.99,,,-99.99,,2013-05-29 12:01:00,
2013-05-29 08:11:00,55.0,54.0,-100.00,SSE,150,3.0,7.0,94,-99.99,,,-99.99,,2013-05-29 12:11:00,
2013-05-29 08:22:00,56.0,54.0,-100.00,SSE,155,5.0,7.0,93,-99.99,,,-99.99,,2013-05-29 12:22:00,
2013-05-29 08:32:00,56.0,54.0,-100.00,SSW,205,3.0,7.0,93,-99.99,,,-99.99,,2013-05-29 12:32:00,
2013-05-29 08:42:00,56.0,54.0,-100.00,SSE,160,2.0,7.0,92,-99.99,,,-99.99,,2013-05-29 12:42:00,
2013-05-29 08:52:00,57.0,54.0,-100.00,SW,215,2.0,5.0,91,-99.99,,,-99.99,,2013-05-29 12:52:00,
2013-05-29 09:02:00,57.0,54.0,-100.00,SW,215,2.0,5.0,91,-99.99,,,-99.99,,2013-05-29 13:02:00,
2013-05-29 09:11:00,57.0,54.0,-100.00,South,180,3.0,7.0,89,-99.99,,,-99.99,,2013-05-29 13:11:00,
2013-05-29 09:21:00,58.0,54.0,-100.00,SSW,205,3.0,7.0,88,-99.99,,,-99.99,,2013-05-29 13:21:00,
2013-05-29 09:32:00,59.0,54.0,-100.00,West,270,2.0,6.0,86,-99.99,,,-99.99,,2013-05-29 13:32:00,
2013-05-29 09:42:00,59.0,54.0,-100.00,West,270,2.0,6.0,86,-99.99,,,-99.99,,2013-05-29 13:42:00,
2013-05-29 09:52:00,59.0,55.0,-100.00,SSW,205,3.0,6.0,85,-99.99,,,-99.99,,2013-05-29 13:52:00,
2013-05-29 10:02:00,60.0,55.0,-100.00,SW,215,3.0,7.0,84,-99.99,,,-99.99,,2013-05-29 14:02:00,
2013-05-29 10:11:00,61.0,56.0,-100.00,SSE,155,2.0,7.0,83,-99.99,,,-99.99,,2013-05-29 14:11:00,
2013-05-29 10:21:00,61.0,55.0,-100.00,SSW,205,2.0,5.0,80,-99.99,,,-99.99,,2013-05-29 14:21:00,
2013-05-29 10:42:00,63.0,55.0,-100.00,SE,125,3.0,5.0,76,-99.99,,,-99.99,,2013-05-29 14:42:00,
2013-05-29 10:52:00,63.0,56.0,-100.00,NNW,340,5.0,7.0,76,-99.99,,,-99.99,,2013-05-29 14:52:00,
2013-05-29 11:01:00,63.0,56.0,-100.00,NNW,340,5.0,7.0,76,-99.99,,,-99.99,,2013-05-29 15:01:00,
2013-05-29 11:11:00,62.0,55.0,-100.00,North,355,5.0,8.0,77,-99.99,,,-99.99,,2013-05-29 15:11:00,
2013-05-29 11:21:00,63.0,55.0,-100.00,North,10,1.0,6.0,76,-99.99,,,-99.99,,2013-05-29 15:21:00,
2013-05-29 11:33:00,62.0,55.0,-100.00,North,355,2.0,5.0,77,-99.99,,,-99.99,,2013-05-29 15:33:00,
2013-05-29 11:42:00,63.0,55.0,-100.00,NNE,20,1.0,5.0,76,-99.99,,,-99.99,,2013-05-29 15:42:00,
2013-05-29 11:53:00,63.0,55.0,-100.00,NNE,15,2.0,5.0,76,-99.99,,,-99.99,,2013-05-29 15:53:00,
2013-05-29 12:03:00,62.0,55.0,-100.00,NE,40,5.0,6.0,76,-99.99,,,-99.99,,2013-05-29 16:03:00,
2013-05-29 12:12:00,62.0,55.0,-100.00,NE,50,3.0,6.0,77,-99.99,,,-99.99,,2013-05-29 16:12:00,
2013-05-29 12:22:00,63.0,55.0,-100.00,NNE,20,2.0,6.0,76,-99.99,,,-99.99,,2013-05-29 16:22:00,